Time;durP1;ratioP1;P1;durP2;ratioP2;P2;SDS_P1;SDS_P2;PMS_P1;PMS_P2;Temp;Humidity;BMP_temperature;BMP_pressure;BME280_temperature;BME280_humidity;BME280_pressure;Samples;Min_cycle;Max_cycle;Signal;HPM_P1;HPM_P2
2022/11/14 00:01:32;;;;;;;;;;;7.20;99.90;;;;;;5045958;28;20018;-89
2022/11/14 00:03:58;;;;;;;;;;;6.20;99.90;;;;;;5026762;28;20016;-89
2022/11/14 00:06:23;;;;;;;;;;;5.50;99.90;;;;;;5033484;28;19931;-88
2022/11/14 00:08:49;;;;;;;;;;;6.40;99.90;;;;;;5043247;28;19924;-87
2022/11/14 00:11:14;;;;;;;;;;;6.50;99.90;;;;;;5011358;28;19978;-89
2022/11/14 00:13:40;;;;;;;;;;;8.20;99.90;;;;;;5046496;28;19926;-88
2022/11/14 00:16:06;;;;;;;;;;;8.40;99.90;;;;;;5034074;28;19972;-89
2022/11/14 00:18:31;;;;;;;;;;;8.00;99.90;;;;;;5046576;28;19946;-89
2022/11/14 00:20:57;;;;;;;;;;;6.10;99.90;;;;;;5029563;28;19978;-89
2022/11/14 00:23:22;;;;;;;;;;;6.10;99.90;;;;;;5016873;28;19933;-89
2022/11/14 00:25:48;;;;;;;;;;;7.00;99.90;;;;;;5033430;28;19968;-89
2022/11/14 00:28:14;;;;;;;;;;;6.10;99.90;;;;;;5023289;28;20368;-89
2022/11/14 00:30:39;;;;;;;;;;;6.10;99.90;;;;;;5020457;28;20331;-88
2022/11/14 00:33:05;;;;;;;;;;;6.10;99.90;;;;;;5041673;28;19932;-89
2022/11/14 00:35:30;;;;;;;;;;;7.30;99.90;;;;;;5048620;28;19932;-89
2022/11/14 00:37:56;;;;;;;;;;;7.90;99.90;;;;;;5038569;28;19968;-89
2022/11/14 00:40:21;;;;;;;;;;;6.20;99.90;;;;;;5029954;28;20387;-88
2022/11/14 00:42:47;;;;;;;;;;;8.00;99.90;;;;;;5037555;28;20292;-89
2022/11/14 00:45:13;;;;;;;;;;;8.30;99.90;;;;;;5041836;28;19986;-89
2022/11/14 00:47:38;;;;;;;;;;;6.20;99.90;;;;;;5048375;28;19936;-88
2022/11/14 00:50:04;;;;;;;;;;;7.90;99.90;;;;;;5066264;28;19947;-89
2022/11/14 00:52:30;;;;;;;;;;;6.30;99.90;;;;;;5046740;28;19966;-89
2022/11/14 00:54:56;;;;;;;;;;;7.90;99.90;;;;;;5048560;28;20353;-88
2022/11/14 00:57:21;;;;;;;;;;;6.30;99.90;;;;;;5032563;28;20180;-89
2022/11/14 00:59:47;;;;;;;;;;;6.30;99.90;;;;;;5022124;28;19932;-88
2022/11/14 01:02:12;;;;;;;;;;;6.30;99.90;;;;;;5036771;28;19933;-89
2022/11/14 01:04:38;;;;;;;;;;;6.30;99.90;;;;;;5026155;28;19946;-89
2022/11/14 01:07:04;;;;;;;;;;;6.30;99.90;;;;;;5045998;28;19932;-90
2022/11/14 01:09:29;;;;;;;;;;;6.30;99.90;;;;;;5044157;28;20360;-89
2022/11/14 01:11:55;;;;;;;;;;;6.30;99.90;;;;;;5031727;28;19998;-90
2022/11/14 01:14:20;;;;;;;;;;;7.90;99.90;;;;;;5042656;28;19936;-89
2022/11/14 01:16:46;;;;;;;;;;;8.50;99.90;;;;;;5048938;28;20349;-89
2022/11/14 01:19:12;;;;;;;;;;;6.30;99.90;;;;;;5046170;28;20336;-90
2022/11/14 01:21:38;;;;;;;;;;;6.30;99.90;;;;;;5039104;28;19968;-89
2022/11/14 01:24:03;;;;;;;;;;;6.30;99.90;;;;;;5034730;28;20019;-89
2022/11/14 01:26:29;;;;;;;;;;;6.30;99.90;;;;;;5020921;28;19932;-89
2022/11/14 01:28:54;;;;;;;;;;;6.30;99.90;;;;;;5025730;28;19928;-89
2022/11/14 01:31:22;;;;;;;;;;;8.00;99.90;;;;;;5044987;28;19925;-89
2022/11/14 01:33:48;;;;;;;;;;;6.30;99.90;;;;;;5043894;28;20272;-89
2022/11/14 01:36:14;;;;;;;;;;;8.10;99.90;;;;;;5023071;28;19929;-89
2022/11/14 01:38:39;;;;;;;;;;;6.30;99.90;;;;;;5011740;28;20067;-89
2022/11/14 01:41:05;;;;;;;;;;;6.80;99.90;;;;;;5028656;28;19925;-89
2022/11/14 01:43:35;;;;;;;;;;;6.80;99.90;;;;;;5042644;28;20011;-88
2022/11/14 01:46:20;;;;;;;;;;;6.10;99.90;;;;;;5023209;28;20369;-89
2022/11/14 01:48:52;;;;;;;;;;;6.10;99.90;;;;;;5042188;28;20384;-89
2022/11/14 01:51:24;;;;;;;;;;;6.00;99.90;;;;;;5043785;28;20014;-88
2022/11/14 01:53:51;;;;;;;;;;;6.10;99.90;;;;;;5024443;28;19932;-89
2022/11/14 01:56:18;;;;;;;;;;;6.20;99.90;;;;;;5044745;28;19982;-89
2022/11/14 01:58:46;;;;;;;;;;;6.00;99.90;;;;;;5070050;28;19933;-89
2022/11/14 02:01:12;;;;;;;;;;;8.20;99.90;;;;;;5027606;28;19924;-88
2022/11/14 02:03:38;;;;;;;;;;;7.20;99.90;;;;;;5042277;28;19929;-89
2022/11/14 02:06:05;;;;;;;;;;;6.00;99.90;;;;;;5027345;28;20426;-88
2022/11/14 02:08:31;;;;;;;;;;;6.00;99.90;;;;;;5036004;28;20007;-90
2022/11/14 02:10:57;;;;;;;;;;;7.10;99.90;;;;;;5027503;28;20389;-90
2022/11/14 02:13:22;;;;;;;;;;;6.00;99.90;;;;;;5039094;28;19924;-88
2022/11/14 02:15:48;;;;;;;;;;;7.80;99.90;;;;;;5026225;28;20218;-89
2022/11/14 02:18:14;;;;;;;;;;;7.80;99.90;;;;;;5027760;28;19935;-89
2022/11/14 02:20:42;;;;;;;;;;;7.00;99.90;;;;;;5029850;28;19928;-90
2022/11/14 02:23:11;;;;;;;;;;;7.20;99.90;;;;;;5047571;28;20363;-88
2022/11/14 02:25:37;;;;;;;;;;;6.00;99.90;;;;;;5045410;28;19925;-88
2022/11/14 02:28:04;;;;;;;;;;;7.40;99.90;;;;;;5028453;28;19924;-88
2022/11/14 02:30:29;;;;;;;;;;;6.00;99.90;;;;;;5038677;28;19932;-89
2022/11/14 02:32:55;;;;;;;;;;;6.80;99.90;;;;;;5050122;28;20384;-89
2022/11/14 02:35:21;;;;;;;;;;;8.20;99.90;;;;;;5036806;28;20277;-90
2022/11/14 02:37:46;;;;;;;;;;;6.00;99.90;;;;;;5027259;28;19925;-89
2022/11/14 02:40:12;;;;;;;;;;;6.00;99.90;;;;;;5052629;28;19929;-90
2022/11/14 02:42:37;;;;;;;;;;;6.00;99.90;;;;;;5018262;28;19925;-89
2022/11/14 02:45:03;;;;;;;;;;;6.00;99.90;;;;;;5037058;28;20019;-87
2022/11/14 02:47:29;;;;;;;;;;;6.00;99.90;;;;;;5026933;28;20051;-89
2022/11/14 02:49:54;;;;;;;;;;;6.00;99.90;;;;;;5042412;28;20308;-89
2022/11/14 02:52:20;;;;;;;;;;;7.60;99.90;;;;;;5023323;28;19925;-90
2022/11/14 02:54:45;;;;;;;;;;;6.00;99.90;;;;;;5024541;28;19943;-89
2022/11/14 02:57:11;;;;;;;;;;;6.00;99.90;;;;;;5022295;28;19925;-89
2022/11/14 02:59:36;;;;;;;;;;;6.10;99.90;;;;;;5033967;28;19933;-89
2022/11/14 03:02:02;;;;;;;;;;;7.60;99.90;;;;;;5012568;28;19935;-90
2022/11/14 03:04:28;;;;;;;;;;;6.10;99.90;;;;;;5037900;28;19924;-89
2022/11/14 03:06:53;;;;;;;;;;;6.90;99.90;;;;;;5037393;28;19928;-90
2022/11/14 03:09:19;;;;;;;;;;;7.00;99.90;;;;;;5020960;28;19924;-89
2022/11/14 03:11:44;;;;;;;;;;;7.20;99.90;;;;;;5020966;28;20007;-89
2022/11/14 03:14:10;;;;;;;;;;;6.20;99.90;;;;;;5020381;28;19975;-89
2022/11/14 03:16:35;;;;;;;;;;;6.20;99.90;;;;;;5002297;28;19925;-89
2022/11/14 03:19:01;;;;;;;;;;;7.80;99.90;;;;;;5037361;28;19932;-88
2022/11/14 03:21:27;;;;;;;;;;;6.70;99.90;;;;;;5038152;28;20028;-89
2022/11/14 03:23:52;;;;;;;;;;;7.10;99.90;;;;;;5018901;28;20335;-89
2022/11/14 03:26:18;;;;;;;;;;;7.90;99.90;;;;;;5022705;28;20039;-89
2022/11/14 03:28:44;;;;;;;;;;;6.20;99.90;;;;;;5017991;28;19979;-89
2022/11/14 03:31:10;;;;;;;;;;;6.20;99.90;;;;;;5019550;28;19932;-89
2022/11/14 03:33:36;;;;;;;;;;;7.50;99.90;;;;;;5041562;28;19932;-89
2022/11/14 03:36:02;;;;;;;;;;;8.20;99.90;;;;;;5024971;28;19929;-90
2022/11/14 03:38:27;;;;;;;;;;;6.20;99.90;;;;;;5044381;28;19971;-88
2022/11/14 03:40:53;;;;;;;;;;;6.20;99.90;;;;;;5046951;28;19925;-89
2022/11/14 03:43:19;;;;;;;;;;;6.20;99.90;;;;;;5046824;28;19928;-90
2022/11/14 03:45:45;;;;;;;;;;;8.00;99.90;;;;;;5045732;28;19924;-90
2022/11/14 03:48:11;;;;;;;;;;;8.30;99.90;;;;;;5044365;28;19931;-89
2022/11/14 03:50:37;;;;;;;;;;;8.20;99.90;;;;;;5027541;28;19970;-89
2022/11/14 03:53:03;;;;;;;;;;;8.10;99.90;;;;;;5042260;28;20019;-88
2022/11/14 03:55:28;;;;;;;;;;;8.00;99.90;;;;;;5029636;28;19932;-89
2022/11/14 03:57:54;;;;;;;;;;;7.10;99.90;;;;;;5028813;28;20021;-89
2022/11/14 04:00:19;;;;;;;;;;;6.10;99.90;;;;;;5024783;28;19928;-89
2022/11/14 04:02:46;;;;;;;;;;;6.40;99.90;;;;;;5032308;28;20380;-89
2022/11/14 04:05:12;;;;;;;;;;;6.20;99.90;;;;;;5054281;28;20023;-89
2022/11/14 04:07:37;;;;;;;;;;;6.20;99.90;;;;;;5042525;28;20442;-89
2022/11/14 04:10:03;;;;;;;;;;;6.20;99.90;;;;;;5042395;28;19982;-90
2022/11/14 04:12:28;;;;;;;;;;;6.20;99.90;;;;;;5036948;28;20007;-91
2022/11/14 04:14:54;;;;;;;;;;;7.20;99.90;;;;;;5037301;28;19924;-90
2022/11/14 04:17:19;;;;;;;;;;;6.20;99.90;;;;;;5036387;28;19932;-88
2022/11/14 04:19:45;;;;;;;;;;;6.20;99.90;;;;;;5020667;28;20020;-89
2022/11/14 04:22:11;;;;;;;;;;;7.30;99.90;;;;;;5004210;28;19924;-89
2022/11/14 04:24:36;;;;;;;;;;;6.10;99.90;;;;;;5035353;28;19925;-89
2022/11/14 04:27:02;;;;;;;;;;;8.10;99.90;;;;;;5035133;28;19929;-90
2022/11/14 04:29:27;;;;;;;;;;;6.10;99.90;;;;;;5017548;28;20012;-90
2022/11/14 04:31:53;;;;;;;;;;;8.10;99.90;;;;;;5028492;28;20058;-89
2022/11/14 04:34:18;;;;;;;;;;;8.00;99.90;;;;;;5017516;28;19925;-90
2022/11/14 04:36:44;;;;;;;;;;;6.10;99.90;;;;;;5018291;28;20392;-89
2022/11/14 04:39:10;;;;;;;;;;;6.10;99.90;;;;;;5034822;28;19933;-89
2022/11/14 04:41:35;;;;;;;;;;;6.10;99.90;;;;;;5036255;28;19924;-88
2022/11/14 04:44:01;;;;;;;;;;;6.10;99.90;;;;;;5037102;28;19946;-89
2022/11/14 04:46:26;;;;;;;;;;;6.10;99.90;;;;;;5029398;28;19925;-90
2022/11/14 04:48:52;;;;;;;;;;;6.20;99.90;;;;;;5031785;28;20420;-89
2022/11/14 04:51:17;;;;;;;;;;;6.10;99.90;;;;;;5048685;28;19995;-89
2022/11/14 04:53:43;;;;;;;;;;;6.10;99.90;;;;;;5017124;28;20024;-89
2022/11/14 04:56:09;;;;;;;;;;;6.80;99.90;;;;;;5001830;28;20015;-89
2022/11/14 04:58:34;;;;;;;;;;;6.00;99.90;;;;;;5029557;28;19925;-89
2022/11/14 05:01:05;;;;;;;;;;;6.00;99.90;;;;;;5018664;28;19925;-90
2022/11/14 05:03:31;;;;;;;;;;;6.00;99.90;;;;;;5014866;28;20288;-89
2022/11/14 05:05:59;;;;;;;;;;;6.40;99.90;;;;;;4996945;28;19929;-90
2022/11/14 05:08:25;;;;;;;;;;;6.00;99.90;;;;;;5018794;28;19925;-88
2022/11/14 05:10:50;;;;;;;;;;;6.60;99.90;;;;;;5009232;28;19932;-89
2022/11/14 05:13:16;;;;;;;;;;;7.00;99.90;;;;;;5010932;28;20361;-89
2022/11/14 05:15:41;;;;;;;;;;;6.00;99.90;;;;;;4993655;28;19929;-89
2022/11/14 05:18:07;;;;;;;;;;;6.00;99.90;;;;;;5026991;28;19925;-89
2022/11/14 05:20:32;;;;;;;;;;;7.30;99.90;;;;;;5020416;28;19924;-91
2022/11/14 05:23:00;;;;;;;;;;;7.10;99.90;;;;;;5021596;28;20427;-89
2022/11/14 05:25:25;;;;;;;;;;;6.00;99.90;;;;;;5005240;28;19975;-88
2022/11/14 05:27:51;;;;;;;;;;;6.00;99.90;;;;;;5023340;28;19929;-89
2022/11/14 05:30:17;;;;;;;;;;;6.90;99.90;;;;;;5028342;28;19993;-88
2022/11/14 05:32:42;;;;;;;;;;;6.00;99.90;;;;;;5017120;28;19929;-89
2022/11/14 05:35:08;;;;;;;;;;;5.90;99.90;;;;;;5021537;28;19988;-89
2022/11/14 05:37:34;;;;;;;;;;;6.90;99.90;;;;;;5048851;28;19984;-88
2022/11/14 05:39:59;;;;;;;;;;;7.80;99.90;;;;;;5054928;28;19913;-87
2022/11/14 05:42:28;;;;;;;;;;;6.70;99.90;;;;;;5018428;28;20081;-89
2022/11/14 05:44:53;;;;;;;;;;;6.00;99.90;;;;;;5018020;28;19924;-88
2022/11/14 05:47:19;;;;;;;;;;;7.00;99.90;;;;;;5044251;28;19913;-88
2022/11/14 05:49:45;;;;;;;;;;;7.90;99.90;;;;;;5034333;28;19916;-89
2022/11/14 05:52:10;;;;;;;;;;;6.30;99.90;;;;;;5013865;28;19933;-89
2022/11/14 05:54:36;;;;;;;;;;;8.00;99.90;;;;;;5026146;28;19926;-88
2022/11/14 05:57:02;;;;;;;;;;;5.90;99.90;;;;;;5034458;28;20020;-89
2022/11/14 05:59:27;;;;;;;;;;;5.90;99.90;;;;;;5000998;28;20284;-89
2022/11/14 06:01:53;;;;;;;;;;;8.00;99.90;;;;;;5019827;28;20360;-88
2022/11/14 06:04:18;;;;;;;;;;;7.70;99.90;;;;;;5004776;28;19929;-90
2022/11/14 06:06:44;;;;;;;;;;;6.70;99.90;;;;;;5022151;28;19913;-89
2022/11/14 06:09:09;;;;;;;;;;;6.20;99.90;;;;;;5023940;28;19913;-89
2022/11/14 06:11:35;;;;;;;;;;;5.90;99.90;;;;;;5020295;28;19916;-90
2022/11/14 06:14:01;;;;;;;;;;;5.90;99.90;;;;;;5036099;28;19909;-89
2022/11/14 06:16:26;;;;;;;;;;;5.90;99.90;;;;;;5023309;28;19909;-90
2022/11/14 06:18:52;;;;;;;;;;;5.80;99.90;;;;;;5016808;28;19931;-89
2022/11/14 06:21:19;;;;;;;;;;;7.70;99.90;;;;;;5013839;28;19925;-90
2022/11/14 06:23:45;;;;;;;;;;;5.70;99.90;;;;;;4998353;28;19964;-90
2022/11/14 06:26:17;;;;;;;;;;;7.60;99.90;;;;;;5007192;28;20281;-91
2022/11/14 06:28:43;;;;;;;;;;;7.10;99.90;;;;;;5008788;28;19925;-92
2022/11/14 06:31:09;;;;;;;;;;;5.70;99.90;;;;;;5000716;28;19925;-91
2022/11/14 06:33:35;;;;;;;;;;;7.00;99.90;;;;;;4998201;28;19965;-90
2022/11/14 06:36:02;;;;;;;;;;;5.70;99.90;;;;;;5011196;28;20266;-89
2022/11/14 06:38:29;;;;;;;;;;;5.70;99.90;;;;;;5000741;28;20000;-92
2022/11/14 06:41:15;;;;;;;;;;;5.90;99.90;;;;;;4998493;28;19934;-90
2022/11/14 06:43:42;;;;;;;;;;;5.70;99.90;;;;;;5015150;28;19925;-88
2022/11/14 06:46:09;;;;;;;;;;;6.90;99.90;;;;;;5019946;28;20651;-92
2022/11/14 06:48:34;;;;;;;;;;;5.70;99.90;;;;;;5023880;28;19932;-90
2022/11/14 06:51:00;;;;;;;;;;;5.70;99.90;;;;;;5018967;28;19926;-88
2022/11/14 06:53:27;;;;;;;;;;;7.10;99.90;;;;;;5018256;28;19973;-90
2022/11/14 06:55:53;;;;;;;;;;;5.70;99.90;;;;;;5014959;28;20440;-88
2022/11/14 06:58:19;;;;;;;;;;;7.60;99.90;;;;;;5031014;28;19925;-90
2022/11/14 07:00:44;;;;;;;;;;;5.70;99.90;;;;;;5035011;28;19987;-90
2022/11/14 07:03:10;;;;;;;;;;;5.70;99.90;;;;;;5034514;28;19932;-89
2022/11/14 07:05:35;;;;;;;;;;;5.70;99.90;;;;;;5034413;28;19979;-89
2022/11/14 07:08:01;;;;;;;;;;;5.70;99.90;;;;;;5035553;28;19932;-89
2022/11/14 07:10:27;;;;;;;;;;;5.70;99.90;;;;;;5035244;28;20280;-89
2022/11/14 07:12:52;;;;;;;;;;;5.70;99.90;;;;;;5027467;28;19929;-89
2022/11/14 07:15:18;;;;;;;;;;;5.70;99.90;;;;;;5031686;28;19929;-88
2022/11/14 07:17:43;;;;;;;;;;;5.70;99.90;;;;;;5015073;28;19925;-89
2022/11/14 07:20:09;;;;;;;;;;;5.70;99.90;;;;;;5033405;28;19925;-89
2022/11/14 07:22:35;;;;;;;;;;;5.70;99.90;;;;;;5033684;28;19932;-89
2022/11/14 07:25:00;;;;;;;;;;;7.00;99.90;;;;;;5034232;28;19960;-89
2022/11/14 07:27:26;;;;;;;;;;;7.70;99.90;;;;;;5030522;28;20016;-89
2022/11/14 07:29:51;;;;;;;;;;;5.70;99.90;;;;;;5013336;28;19984;-90
2022/11/14 07:32:17;;;;;;;;;;;5.70;99.90;;;;;;5026116;28;19925;-89
2022/11/14 07:34:42;;;;;;;;;;;5.70;99.90;;;;;;5032466;28;19932;-89
2022/11/14 07:37:08;;;;;;;;;;;5.80;99.90;;;;;;5030676;28;19926;-90
2022/11/14 07:39:34;;;;;;;;;;;5.90;99.90;;;;;;5032472;28;20372;-89
2022/11/14 07:41:59;;;;;;;;;;;5.70;99.90;;;;;;5027962;28;20919;-88
2022/11/14 07:44:25;;;;;;;;;;;6.60;99.90;;;;;;5030587;28;19935;-87
2022/11/14 07:46:50;;;;;;;;;;;6.40;99.90;;;;;;5022953;28;20028;-89
2022/11/14 07:49:16;;;;;;;;;;;5.60;99.90;;;;;;5037168;28;20024;-89
2022/11/14 07:51:41;;;;;;;;;;;7.70;99.90;;;;;;5037134;28;19928;-89
2022/11/14 07:54:09;;;;;;;;;;;5.60;99.90;;;;;;5018499;28;19925;-89
2022/11/14 07:56:35;;;;;;;;;;;5.60;99.90;;;;;;5032884;28;19925;-89
2022/11/14 07:59:00;;;;;;;;;;;5.90;99.90;;;;;;5033037;28;19960;-89
2022/11/14 08:01:26;;;;;;;;;;;5.70;99.90;;;;;;5013485;28;20255;-89
2022/11/14 08:03:51;;;;;;;;;;;6.50;99.90;;;;;;5035071;28;20004;-89
2022/11/14 08:06:17;;;;;;;;;;;7.10;99.90;;;;;;5013833;28;19926;-89
2022/11/14 08:08:43;;;;;;;;;;;5.50;99.90;;;;;;5025720;28;19925;-89
2022/11/14 08:11:09;;;;;;;;;;;6.50;99.90;;;;;;5046623;28;19971;-89
2022/11/14 08:13:34;;;;;;;;;;;7.40;99.90;;;;;;5032157;28;20319;-89
2022/11/14 08:16:04;;;;;;;;;;;5.50;99.90;;;;;;5032156;28;19926;-89
2022/11/14 08:18:30;;;;;;;;;;;5.60;99.90;;;;;;5048703;28;19931;-90
2022/11/14 08:20:56;;;;;;;;;;;7.30;99.90;;;;;;5036347;28;19925;-89
2022/11/14 08:23:22;;;;;;;;;;;5.60;99.90;;;;;;5033449;28;20002;-89
2022/11/14 08:25:47;;;;;;;;;;;7.60;99.90;;;;;;5052212;28;19999;-88
2022/11/14 08:28:13;;;;;;;;;;;5.60;99.90;;;;;;5033094;28;20024;-89
2022/11/14 08:30:38;;;;;;;;;;;6.30;99.90;;;;;;5051256;28;19925;-90
2022/11/14 08:33:04;;;;;;;;;;;7.40;99.90;;;;;;5032925;28;20376;-89
2022/11/14 08:35:31;;;;;;;;;;;6.00;99.90;;;;;;5028517;28;19932;-89
2022/11/14 08:37:58;;;;;;;;;;;4.30;99.90;;;;;;5036433;28;19929;-89
2022/11/14 08:40:24;;;;;;;;;;;5.70;99.90;;;;;;5033243;28;19925;-89
2022/11/14 08:42:50;;;;;;;;;;;5.70;99.90;;;;;;5034838;28;19971;-89
2022/11/14 08:45:18;;;;;;;;;;;5.70;99.90;;;;;;5050722;28;20299;-89
2022/11/14 08:47:49;;;;;;;;;;;5.80;99.90;;;;;;5029751;28;19952;-89
2022/11/14 08:50:15;;;;;;;;;;;5.90;99.90;;;;;;5052521;28;19968;-89
2022/11/14 08:52:40;;;;;;;;;;;5.80;99.90;;;;;;5013405;28;19967;-89
2022/11/14 08:55:06;;;;;;;;;;;5.90;99.90;;;;;;5032575;28;19925;-89
2022/11/14 08:57:32;;;;;;;;;;;5.80;99.90;;;;;;5049594;28;20473;-89
2022/11/14 08:59:57;;;;;;;;;;;5.80;99.90;;;;;;5036417;28;20333;-89
2022/11/14 09:02:23;;;;;;;;;;;5.80;99.90;;;;;;5031579;28;19925;-90
2022/11/14 09:04:48;;;;;;;;;;;5.90;99.90;;;;;;5031060;28;19925;-89
2022/11/14 09:07:14;;;;;;;;;;;5.90;99.90;;;;;;5012589;28;19925;-90
2022/11/14 09:09:39;;;;;;;;;;;6.20;99.90;;;;;;5035716;28;20265;-89
2022/11/14 09:12:05;;;;;;;;;;;6.70;99.90;;;;;;5015706;28;19925;-89
2022/11/14 09:14:31;;;;;;;;;;;6.10;99.90;;;;;;5032334;28;19931;-89
2022/11/14 09:16:56;;;;;;;;;;;6.20;99.90;;;;;;5016914;28;19925;-90
2022/11/14 09:19:22;;;;;;;;;;;6.20;99.90;;;;;;5031867;28;20016;-89
2022/11/14 09:21:47;;;;;;;;;;;6.30;99.90;;;;;;5029664;28;19975;-89
2022/11/14 09:24:13;;;;;;;;;;;6.20;99.90;;;;;;5032332;28;19932;-90
2022/11/14 09:26:38;;;;;;;;;;;7.90;99.90;;;;;;5015977;28;19969;-89
2022/11/14 09:29:05;;;;;;;;;;;7.10;99.90;;;;;;5034168;28;20369;-89
2022/11/14 09:31:30;;;;;;;;;;;6.60;99.90;;;;;;5033493;28;19925;-88
2022/11/14 09:33:56;;;;;;;;;;;6.30;99.90;;;;;;5037316;28;19925;-91
2022/11/14 09:36:22;;;;;;;;;;;6.20;99.90;;;;;;5014924;28;20036;-89
2022/11/14 09:38:49;;;;;;;;;;;6.20;99.90;;;;;;5014619;28;20315;-89
2022/11/14 09:41:21;;;;;;;;;;;7.80;99.90;;;;;;5030096;28;19925;-90
2022/11/14 09:43:46;;;;;;;;;;;6.20;99.90;;;;;;5034180;28;19932;-89
2022/11/14 09:46:19;;;;;;;;;;;6.20;99.90;;;;;;5030920;28;19929;-90
2022/11/14 09:48:45;;;;;;;;;;;6.20;99.90;;;;;;5032613;28;19925;-89
2022/11/14 09:51:22;;;;;;;;;;;6.10;99.90;;;;;;5031584;28;19933;-90
2022/11/14 09:53:55;;;;;;;;;;;6.10;99.90;;;;;;5033884;28;19978;-89
2022/11/14 09:56:25;;;;;;;;;;;6.20;99.90;;;;;;5031147;28;19935;-89
2022/11/14 09:58:50;;;;;;;;;;;6.20;99.90;;;;;;5034438;28;19932;-90
2022/11/14 10:01:27;;;;;;;;;;;6.30;99.90;;;;;;5025740;28;19925;-89
2022/11/14 10:04:05;;;;;;;;;;;6.30;99.90;;;;;;5034479;28;20467;-89
2022/11/14 10:06:49;;;;;;;;;;;6.30;99.90;;;;;;5030126;28;19925;-89
2022/11/14 10:09:24;;;;;;;;;;;6.30;99.90;;;;;;5009517;28;19925;-89
2022/11/14 10:12:14;;;;;;;;;;;6.30;99.90;;;;;;4999296;28;19973;-90
2022/11/14 10:14:39;;;;;;;;;;;6.30;99.90;;;;;;5021364;28;19932;-89
2022/11/14 10:17:11;;;;;;;;;;;6.40;99.90;;;;;;5014364;28;19925;-89
2022/11/14 10:19:52;;;;;;;;;;;6.30;99.90;;;;;;5035304;28;19925;-90
2022/11/14 10:22:26;;;;;;;;;;;6.40;99.90;;;;;;5024975;28;20011;-89
2022/11/14 10:25:21;;;;;;;;;;;6.40;99.90;;;;;;5039019;28;19974;-90
2022/11/14 10:27:53;;;;;;;;;;;6.50;99.90;;;;;;5014858;28;19925;-89
2022/11/14 10:30:19;;;;;;;;;;;7.10;99.90;;;;;;5018671;28;19952;-89
2022/11/14 10:32:57;;;;;;;;;;;7.20;99.90;;;;;;5036396;28;19925;-89
2022/11/14 10:35:27;;;;;;;;;;;6.70;99.90;;;;;;5015904;28;19929;-90
2022/11/14 10:38:02;;;;;;;;;;;7.30;99.90;;;;;;5050531;28;20428;-89
2022/11/14 10:40:33;;;;;;;;;;;6.80;99.90;;;;;;5035392;28;19975;-90
2022/11/14 10:43:04;;;;;;;;;;;6.80;99.90;;;;;;5018445;28;19925;-89
2022/11/14 10:45:33;;;;;;;;;;;6.70;99.90;;;;;;5016850;28;20011;-88
2022/11/14 10:48:02;;;;;;;;;;;6.70;99.90;;;;;;5037948;28;19936;-90
2022/11/14 10:50:34;;;;;;;;;;;8.10;99.90;;;;;;5018622;28;19940;-90
2022/11/14 10:53:03;;;;;;;;;;;6.80;99.90;;;;;;5034321;28;19940;-89
2022/11/14 10:55:29;;;;;;;;;;;8.50;99.90;;;;;;5032446;28;20292;-90
2022/11/14 10:57:56;;;;;;;;;;;6.90;99.90;;;;;;5037890;28;19950;-89
2022/11/14 11:00:22;;;;;;;;;;;7.00;99.90;;;;;;5054756;28;20127;-89
2022/11/14 11:02:49;;;;;;;;;;;7.00;99.90;;;;;;5017854;28;20012;-89
2022/11/14 11:05:16;;;;;;;;;;;7.00;99.90;;;;;;5033585;28;19926;-90
2022/11/14 11:13:26;;;;;;;;;;;7.10;99.90;;;;;;5020663;28;20008;-90
2022/11/14 11:15:54;;;;;;;;;;;8.80;99.90;;;;;;5047956;28;19928;-89
2022/11/14 11:18:30;;;;;;;;;;;7.20;99.90;;;;;;5046735;28;19990;-89
2022/11/14 11:21:09;;;;;;;;;;;8.10;99.90;;;;;;5044628;28;19929;-89
2022/11/14 11:23:35;;;;;;;;;;;7.30;99.90;;;;;;5041447;28;19983;-89
2022/11/14 11:26:06;;;;;;;;;;;7.40;99.90;;;;;;5043062;28;19977;-89
2022/11/14 11:28:33;;;;;;;;;;;7.50;99.90;;;;;;5033585;28;20306;-89
2022/11/14 11:30:59;;;;;;;;;;;8.70;99.90;;;;;;5059665;28;19925;-90
2022/11/14 11:33:28;;;;;;;;;;;7.60;99.90;;;;;;5041086;28;19924;-89
2022/11/14 11:35:59;;;;;;;;;;;7.70;99.90;;;;;;5022779;28;19938;-90
2022/11/14 11:38:29;;;;;;;;;;;7.80;99.90;;;;;;5033907;28;19948;-90
2022/11/14 11:41:01;;;;;;;;;;;7.80;99.90;;;;;;5028292;28;20028;-89
2022/11/14 11:43:26;;;;;;;;;;;7.80;99.90;;;;;;5039576;28;19924;-91
2022/11/14 11:45:53;;;;;;;;;;;7.80;99.90;;;;;;5041889;28;19928;-89
2022/11/14 11:48:20;;;;;;;;;;;7.90;99.90;;;;;;5030334;28;19940;-89
2022/11/14 11:50:46;;;;;;;;;;;8.70;99.90;;;;;;5036306;28;19924;-90
2022/11/14 11:53:21;;;;;;;;;;;7.90;99.90;;;;;;5033627;28;19977;-89
2022/11/14 11:55:50;;;;;;;;;;;7.80;99.90;;;;;;5028093;28;20332;-90
2022/11/14 11:58:15;;;;;;;;;;;7.80;99.90;;;;;;5033356;28;19941;-91
2022/11/14 12:00:41;;;;;;;;;;;7.80;99.90;;;;;;5031087;28;19944;-90
2022/11/14 12:03:13;;;;;;;;;;;7.80;99.90;;;;;;5032477;28;19925;-91
2022/11/14 12:05:51;;;;;;;;;;;7.90;99.90;;;;;;5028246;28;19926;-90
2022/11/14 12:08:29;;;;;;;;;;;7.90;99.90;;;;;;5031555;28;19929;-91
2022/11/14 12:10:55;;;;;;;;;;;8.00;99.90;;;;;;5031355;28;20011;-90
2022/11/14 12:13:40;;;;;;;;;;;8.00;99.90;;;;;;5032954;28;20385;-91
2022/11/14 12:16:11;;;;;;;;;;;8.10;99.90;;;;;;5032672;28;20322;-90
2022/11/14 12:18:50;;;;;;;;;;;8.00;99.90;;;;;;5030764;28;19925;-90
2022/11/14 12:21:22;;;;;;;;;;;8.00;99.90;;;;;;5013960;28;19948;-90
2022/11/14 12:24:00;;;;;;;;;;;8.00;99.90;;;;;;5031665;28;19975;-90
2022/11/14 12:26:44;;;;;;;;;;;8.00;99.90;;;;;;5028440;28;19937;-91
2022/11/14 12:29:25;;;;;;;;;;;8.00;99.90;;;;;;5033806;28;20360;-91
2022/11/14 12:31:53;;;;;;;;;;;8.00;99.90;;;;;;5042281;28;19928;-92
2022/11/14 12:34:31;;;;;;;;;;;8.40;99.90;;;;;;5038533;28;19929;-90
2022/11/14 12:36:56;;;;;;;;;;;8.10;99.90;;;;;;5032737;28;20284;-91
2022/11/14 12:39:29;;;;;;;;;;;8.10;99.90;;;;;;5035452;28;20019;-92
2022/11/14 12:42:05;;;;;;;;;;;8.20;99.90;;;;;;5029371;28;19971;-94
2022/11/14 12:44:31;;;;;;;;;;;8.20;99.90;;;;;;5017199;28;20327;-90
2022/11/14 12:47:06;;;;;;;;;;;8.30;99.90;;;;;;5019051;28;19932;-89
2022/11/14 12:49:46;;;;;;;;;;;8.30;99.90;;;;;;5034270;28;19987;-89
2022/11/14 12:52:31;;;;;;;;;;;8.30;99.90;;;;;;5030931;28;20010;-91
2022/11/14 12:54:56;;;;;;;;;;;8.40;99.90;;;;;;5051440;28;19932;-88
2022/11/14 12:57:48;;;;;;;;;;;8.40;99.90;;;;;;5038479;28;19929;-92
2022/11/14 13:00:14;;;;;;;;;;;8.40;99.90;;;;;;5046955;28;19994;-92
2022/11/14 13:02:40;;;;;;;;;;;8.50;99.90;;;;;;5021993;28;19924;-92
2022/11/14 13:05:08;;;;;;;;;;;8.40;99.90;;;;;;5036672;28;19925;-91
2022/11/14 13:07:40;;;;;;;;;;;8.50;99.90;;;;;;5036689;28;19975;-90
2022/11/14 13:10:12;;;;;;;;;;;8.60;99.90;;;;;;5038968;28;19931;-92
2022/11/14 13:23:49;;;;;;;;;;;8.50;99.90;;;;;;5043038;28;20340;-92
2022/11/14 13:26:18;;;;;;;;;;;8.50;99.90;;;;;;5061514;28;20015;-92
2022/11/14 13:28:47;;;;;;;;;;;8.50;99.90;;;;;;5014688;28;19925;-93
2022/11/14 13:31:19;;;;;;;;;;;8.50;99.90;;;;;;5021772;28;19973;-92
2022/11/14 13:33:48;;;;;;;;;;;8.40;99.90;;;;;;5020458;28;19929;-91
2022/11/14 13:36:25;;;;;;;;;;;9.60;99.90;;;;;;5014990;28;19929;-91
2022/11/14 13:39:15;;;;;;;;;;;8.50;99.90;;;;;;5039252;28;19956;-92
2022/11/14 13:42:01;;;;;;;;;;;8.50;99.90;;;;;;5044036;28;20386;-92
2022/11/14 13:44:29;;;;;;;;;;;8.40;99.90;;;;;;5014223;28;20270;-93
2022/11/14 13:47:13;;;;;;;;;;;8.40;99.90;;;;;;5023550;28;19933;-91
2022/11/14 13:49:42;;;;;;;;;;;8.40;99.90;;;;;;5033706;28;20300;-92
2022/11/14 13:52:10;;;;;;;;;;;7.50;99.90;;;;;;5021383;28;19995;-93
2022/11/14 13:54:36;;;;;;;;;;;8.40;99.90;;;;;;5017804;28;19925;-92
2022/11/14 13:57:12;;;;;;;;;;;10.00;99.90;;;;;;5023161;28;19939;-91
2022/11/14 13:59:47;;;;;;;;;;;8.40;99.90;;;;;;5024529;28;19925;-90
2022/11/14 14:02:33;;;;;;;;;;;8.50;99.90;;;;;;5045986;28;19928;-94
2022/11/14 14:05:20;;;;;;;;;;;8.40;99.90;;;;;;5021802;28;19939;-92
2022/11/14 14:08:04;;;;;;;;;;;8.40;99.90;;;;;;5035484;28;19925;-93
2022/11/14 14:10:33;;;;;;;;;;;8.40;99.90;;;;;;5014627;28;19925;-91
2022/11/14 14:13:17;;;;;;;;;;;8.40;99.90;;;;;;5041484;28;19935;-91
2022/11/14 14:15:55;;;;;;;;;;;8.40;99.90;;;;;;5037913;28;19925;-92
2022/11/14 14:18:24;;;;;;;;;;;8.30;99.90;;;;;;5034319;28;20288;-91
2022/11/14 14:20:52;;;;;;;;;;;8.40;99.90;;;;;;5025295;28;19926;-91
2022/11/14 14:23:39;;;;;;;;;;;8.30;99.90;;;;;;5018325;28;20346;-96
2022/11/14 14:26:05;;;;;;;;;;;8.30;99.90;;;;;;5024224;28;20340;-91
2022/11/14 14:28:43;;;;;;;;;;;8.30;99.90;;;;;;5018006;28;19925;-91
2022/11/14 14:31:14;;;;;;;;;;;8.30;99.90;;;;;;5016840;28;19932;-91
2022/11/14 14:33:41;;;;;;;;;;;8.30;99.90;;;;;;5035680;28;19925;-92
2022/11/14 14:36:17;;;;;;;;;;;10.20;99.90;;;;;;5034947;28;19970;-91
2022/11/14 14:38:43;;;;;;;;;;;8.20;99.90;;;;;;5017675;28;20380;-91
2022/11/14 14:41:10;;;;;;;;;;;8.20;99.90;;;;;;5019520;28;19925;-92
2022/11/14 14:43:35;;;;;;;;;;;8.20;99.90;;;;;;5032240;28;20300;-91
2022/11/14 14:46:01;;;;;;;;;;;8.70;99.90;;;;;;5012497;28;19925;-91
2022/11/14 14:48:28;;;;;;;;;;;9.10;99.90;;;;;;5020268;28;19924;-91
2022/11/14 14:50:55;;;;;;;;;;;8.10;99.90;;;;;;5045268;28;19936;-91
2022/11/14 14:53:23;;;;;;;;;;;8.10;99.90;;;;;;5019795;28;19932;-90